sensor_id;sensor_type;location;lat;lon;timestamp;temperature;humidity
4725;DHT22;2376;53.544;10.226;2023-07-13T00:02:21;18.60;99.90
4725;DHT22;2376;53.544;10.226;2023-07-13T00:04:48;18.60;99.90
4725;DHT22;2376;53.544;10.226;2023-07-13T00:07:14;18.50;99.90
4725;DHT22;2376;53.544;10.226;2023-07-13T00:09:41;18.50;99.90
4725;DHT22;2376;53.544;10.226;2023-07-13T00:12:23;18.50;99.90
4725;DHT22;2376;53.544;10.226;2023-07-13T00:14:51;18.50;99.90
4725;DHT22;2376;53.544;10.226;2023-07-13T00:17:18;18.50;99.90
4725;DHT22;2376;53.544;10.226;2023-07-13T00:19:45;18.50;99.90
4725;DHT22;2376;53.544;10.226;2023-07-13T00:22:12;18.40;99.90
4725;DHT22;2376;53.544;10.226;2023-07-13T00:24:38;18.40;99.90
4725;DHT22;2376;53.544;10.226;2023-07-13T00:27:07;18.40;99.90
4725;DHT22;2376;53.544;10.226;2023-07-13T00:29:34;18.40;99.90
4725;DHT22;2376;53.544;10.226;2023-07-13T00:32:03;18.30;99.90
4725;DHT22;2376;53.544;10.226;2023-07-13T00:34:31;18.30;99.90
4725;DHT22;2376;53.544;10.226;2023-07-13T00:36:57;18.20;99.90
4725;DHT22;2376;53.544;10.226;2023-07-13T00:39:25;18.20;99.90
4725;DHT22;2376;53.544;10.226;2023-07-13T00:41:52;18.10;99.90
4725;DHT22;2376;53.544;10.226;2023-07-13T00:44:20;18.10;99.90
4725;DHT22;2376;53.544;10.226;2023-07-13T00:46:48;18.00;99.90
4725;DHT22;2376;53.544;10.226;2023-07-13T00:49:19;18.00;99.90
4725;DHT22;2376;53.544;10.226;2023-07-13T00:51:49;18.00;99.90
4725;DHT22;2376;53.544;10.226;2023-07-13T00:54:20;17.90;99.90
4725;DHT22;2376;53.544;10.226;2023-07-13T00:56:50;17.90;99.90
4725;DHT22;2376;53.544;10.226;2023-07-13T00:59:18;17.80;99.90
4725;DHT22;2376;53.544;10.226;2023-07-13T01:01:46;17.80;99.90
4725;DHT22;2376;53.544;10.226;2023-07-13T01:04:14;17.80;99.90
4725;DHT22;2376;53.544;10.226;2023-07-13T01:06:42;17.70;99.90
4725;DHT22;2376;53.544;10.226;2023-07-13T01:09:10;17.70;99.90
4725;DHT22;2376;53.544;10.226;2023-07-13T01:11:37;17.60;99.90
4725;DHT22;2376;53.544;10.226;2023-07-13T01:14:04;17.60;99.90
4725;DHT22;2376;53.544;10.226;2023-07-13T01:16:33;17.60;99.90
4725;DHT22;2376;53.544;10.226;2023-07-13T01:19:01;17.50;99.90
4725;DHT22;2376;53.544;10.226;2023-07-13T01:21:32;17.50;99.90
4725;DHT22;2376;53.544;10.226;2023-07-13T01:24:00;17.50;99.90
4725;DHT22;2376;53.544;10.226;2023-07-13T01:26:27;17.50;99.90
4725;DHT22;2376;53.544;10.226;2023-07-13T01:28:54;17.40;99.90
4725;DHT22;2376;53.544;10.226;2023-07-13T01:31:22;17.40;99.90
4725;DHT22;2376;53.544;10.226;2023-07-13T01:33:49;17.40;99.90
4725;DHT22;2376;53.544;10.226;2023-07-13T01:36:15;17.30;99.90
4725;DHT22;2376;53.544;10.226;2023-07-13T01:38:43;17.30;99.90
4725;DHT22;2376;53.544;10.226;2023-07-13T01:41:10;17.30;99.90
4725;DHT22;2376;53.544;10.226;2023-07-13T01:43:37;17.30;99.90
4725;DHT22;2376;53.544;10.226;2023-07-13T01:46:04;17.20;99.90
4725;DHT22;2376;53.544;10.226;2023-07-13T01:48:31;17.20;99.90
4725;DHT22;2376;53.544;10.226;2023-07-13T01:50:58;17.20;99.90
4725;DHT22;2376;53.544;10.226;2023-07-13T01:53:25;17.20;99.90
4725;DHT22;2376;53.544;10.226;2023-07-13T01:55:53;17.20;99.90
4725;DHT22;2376;53.544;10.226;2023-07-13T01:58:20;17.20;99.90
4725;DHT22;2376;53.544;10.226;2023-07-13T02:00:48;17.10;99.90
4725;DHT22;2376;53.544;10.226;2023-07-13T02:03:15;17.10;99.90
4725;DHT22;2376;53.544;10.226;2023-07-13T02:05:43;17.10;99.90
4725;DHT22;2376;53.544;10.226;2023-07-13T02:08:10;17.10;99.90
4725;DHT22;2376;53.544;10.226;2023-07-13T02:10:37;17.10;99.90
4725;DHT22;2376;53.544;10.226;2023-07-13T02:13:06;17.10;99.90
4725;DHT22;2376;53.544;10.226;2023-07-13T02:15:32;17.10;99.90
4725;DHT22;2376;53.544;10.226;2023-07-13T02:17:59;17.10;99.90
4725;DHT22;2376;53.544;10.226;2023-07-13T02:20:26;17.00;99.90
4725;DHT22;2376;53.544;10.226;2023-07-13T02:22:53;17.00;99.90
4725;DHT22;2376;53.544;10.226;2023-07-13T02:25:19;17.00;99.90
4725;DHT22;2376;53.544;10.226;2023-07-13T02:27:46;17.00;99.90
4725;DHT22;2376;53.544;10.226;2023-07-13T02:30:14;17.00;99.90
4725;DHT22;2376;53.544;10.226;2023-07-13T02:32:41;17.00;99.90
4725;DHT22;2376;53.544;10.226;2023-07-13T02:35:09;16.90;99.90
4725;DHT22;2376;53.544;10.226;2023-07-13T02:37:35;16.90;99.90
4725;DHT22;2376;53.544;10.226;2023-07-13T02:40:03;16.90;99.90
4725;DHT22;2376;53.544;10.226;2023-07-13T02:42:33;16.90;99.90
4725;DHT22;2376;53.544;10.226;2023-07-13T02:45:00;16.90;99.90
4725;DHT22;2376;53.544;10.226;2023-07-13T02:47:28;16.90;99.90
4725;DHT22;2376;53.544;10.226;2023-07-13T02:49:55;16.80;99.90
4725;DHT22;2376;53.544;10.226;2023-07-13T02:52:21;16.80;99.90
4725;DHT22;2376;53.544;10.226;2023-07-13T02:54:48;16.90;99.90
4725;DHT22;2376;53.544;10.226;2023-07-13T02:57:15;16.80;99.90
4725;DHT22;2376;53.544;10.226;2023-07-13T02:59:42;16.80;99.90
4725;DHT22;2376;53.544;10.226;2023-07-13T03:02:08;16.80;99.90
4725;DHT22;2376;53.544;10.226;2023-07-13T03:04:37;16.80;99.90
4725;DHT22;2376;53.544;10.226;2023-07-13T03:07:04;16.80;99.90
4725;DHT22;2376;53.544;10.226;2023-07-13T03:09:33;16.80;99.90
4725;DHT22;2376;53.544;10.226;2023-07-13T03:12:00;16.80;99.90
4725;DHT22;2376;53.544;10.226;2023-07-13T03:14:27;16.80;99.90
4725;DHT22;2376;53.544;10.226;2023-07-13T03:16:53;16.70;99.90
4725;DHT22;2376;53.544;10.226;2023-07-13T03:19:21;16.70;99.90
4725;DHT22;2376;53.544;10.226;2023-07-13T03:21:49;16.70;99.90
4725;DHT22;2376;53.544;10.226;2023-07-13T03:24:15;16.70;99.90
4725;DHT22;2376;53.544;10.226;2023-07-13T03:26:42;16.70;99.90
4725;DHT22;2376;53.544;10.226;2023-07-13T03:29:09;16.60;99.90
4725;DHT22;2376;53.544;10.226;2023-07-13T03:31:36;16.60;99.90
4725;DHT22;2376;53.544;10.226;2023-07-13T03:34:04;16.60;99.90
4725;DHT22;2376;53.544;10.226;2023-07-13T03:36:31;16.70;99.90
4725;DHT22;2376;53.544;10.226;2023-07-13T03:39:02;16.60;99.90
4725;DHT22;2376;53.544;10.226;2023-07-13T03:41:29;16.70;99.90
4725;DHT22;2376;53.544;10.226;2023-07-13T03:43:57;16.70;99.90
4725;DHT22;2376;53.544;10.226;2023-07-13T03:46:23;16.70;99.90
4725;DHT22;2376;53.544;10.226;2023-07-13T03:48:50;16.60;99.90
4725;DHT22;2376;53.544;10.226;2023-07-13T03:51:18;16.70;99.90
4725;DHT22;2376;53.544;10.226;2023-07-13T03:53:46;16.70;99.90
4725;DHT22;2376;53.544;10.226;2023-07-13T03:56:15;16.70;99.90
4725;DHT22;2376;53.544;10.226;2023-07-13T03:58:44;16.70;99.90
4725;DHT22;2376;53.544;10.226;2023-07-13T04:01:12;16.70;99.90
4725;DHT22;2376;53.544;10.226;2023-07-13T04:03:39;16.70;99.90
4725;DHT22;2376;53.544;10.226;2023-07-13T04:06:12;16.70;99.90
4725;DHT22;2376;53.544;10.226;2023-07-13T04:08:40;16.70;99.90
4725;DHT22;2376;53.544;10.226;2023-07-13T04:11:07;16.70;99.90
4725;DHT22;2376;53.544;10.226;2023-07-13T04:13:35;16.70;99.90
4725;DHT22;2376;53.544;10.226;2023-07-13T04:16:02;16.70;99.90
4725;DHT22;2376;53.544;10.226;2023-07-13T04:18:30;16.70;99.90
4725;DHT22;2376;53.544;10.226;2023-07-13T04:20:56;16.70;99.90
4725;DHT22;2376;53.544;10.226;2023-07-13T04:23:23;16.70;99.90
4725;DHT22;2376;53.544;10.226;2023-07-13T04:25:52;16.70;99.90
4725;DHT22;2376;53.544;10.226;2023-07-13T04:28:19;16.80;99.90
4725;DHT22;2376;53.544;10.226;2023-07-13T04:30:48;16.80;99.90
4725;DHT22;2376;53.544;10.226;2023-07-13T04:33:15;16.80;99.90
4725;DHT22;2376;53.544;10.226;2023-07-13T04:35:42;16.80;99.90
4725;DHT22;2376;53.544;10.226;2023-07-13T04:38:09;16.80;99.90
4725;DHT22;2376;53.544;10.226;2023-07-13T04:40:37;16.80;99.90
4725;DHT22;2376;53.544;10.226;2023-07-13T04:43:03;16.80;99.90
4725;DHT22;2376;53.544;10.226;2023-07-13T04:45:30;16.80;99.90
4725;DHT22;2376;53.544;10.226;2023-07-13T04:47:58;16.80;99.90
4725;DHT22;2376;53.544;10.226;2023-07-13T04:50:25;16.80;99.90
4725;DHT22;2376;53.544;10.226;2023-07-13T04:52:52;16.90;99.90
4725;DHT22;2376;53.544;10.226;2023-07-13T04:55:19;16.90;99.90
4725;DHT22;2376;53.544;10.226;2023-07-13T04:57:46;16.90;99.90
4725;DHT22;2376;53.544;10.226;2023-07-13T05:00:14;16.90;99.90
4725;DHT22;2376;53.544;10.226;2023-07-13T05:02:44;16.90;99.90
4725;DHT22;2376;53.544;10.226;2023-07-13T05:05:12;17.00;99.90
4725;DHT22;2376;53.544;10.226;2023-07-13T05:07:38;17.00;99.90
4725;DHT22;2376;53.544;10.226;2023-07-13T05:10:06;17.00;99.90
4725;DHT22;2376;53.544;10.226;2023-07-13T05:12:33;17.00;99.90
4725;DHT22;2376;53.544;10.226;2023-07-13T05:15:00;17.00;99.90
4725;DHT22;2376;53.544;10.226;2023-07-13T05:17:27;17.10;99.90
4725;DHT22;2376;53.544;10.226;2023-07-13T05:19:54;17.10;99.90
4725;DHT22;2376;53.544;10.226;2023-07-13T05:22:22;17.10;99.90
4725;DHT22;2376;53.544;10.226;2023-07-13T05:24:48;17.10;99.90
4725;DHT22;2376;53.544;10.226;2023-07-13T05:27:15;17.10;99.90
4725;DHT22;2376;53.544;10.226;2023-07-13T05:29:42;17.20;99.90
4725;DHT22;2376;53.544;10.226;2023-07-13T05:32:10;17.20;99.90
4725;DHT22;2376;53.544;10.226;2023-07-13T05:34:36;17.20;99.90
4725;DHT22;2376;53.544;10.226;2023-07-13T05:37:03;17.30;99.90
4725;DHT22;2376;53.544;10.226;2023-07-13T05:39:31;17.30;99.90
4725;DHT22;2376;53.544;10.226;2023-07-13T05:41:58;17.30;99.90
4725;DHT22;2376;53.544;10.226;2023-07-13T05:44:25;17.40;99.90
4725;DHT22;2376;53.544;10.226;2023-07-13T05:46:52;17.40;99.90
4725;DHT22;2376;53.544;10.226;2023-07-13T05:49:18;17.60;99.90
4725;DHT22;2376;53.544;10.226;2023-07-13T05:51:45;17.70;99.90
4725;DHT22;2376;53.544;10.226;2023-07-13T05:54:11;17.70;99.90
4725;DHT22;2376;53.544;10.226;2023-07-13T05:56:40;17.80;99.90
4725;DHT22;2376;53.544;10.226;2023-07-13T05:59:06;17.80;99.90
4725;DHT22;2376;53.544;10.226;2023-07-13T06:01:33;17.90;99.90
4725;DHT22;2376;53.544;10.226;2023-07-13T06:04:00;18.00;99.90
4725;DHT22;2376;53.544;10.226;2023-07-13T06:06:27;18.00;99.90
4725;DHT22;2376;53.544;10.226;2023-07-13T06:08:54;18.10;99.90
4725;DHT22;2376;53.544;10.226;2023-07-13T06:11:23;18.20;99.90
4725;DHT22;2376;53.544;10.226;2023-07-13T06:13:52;18.30;99.90
4725;DHT22;2376;53.544;10.226;2023-07-13T06:16:19;18.40;99.90
4725;DHT22;2376;53.544;10.226;2023-07-13T06:18:46;18.50;99.90
4725;DHT22;2376;53.544;10.226;2023-07-13T06:21:15;18.60;99.90
4725;DHT22;2376;53.544;10.226;2023-07-13T06:23:43;18.60;99.90
4725;DHT22;2376;53.544;10.226;2023-07-13T06:26:11;18.70;99.90
4725;DHT22;2376;53.544;10.226;2023-07-13T06:28:38;18.80;99.90
4725;DHT22;2376;53.544;10.226;2023-07-13T06:31:07;18.90;99.90
4725;DHT22;2376;53.544;10.226;2023-07-13T06:33:34;18.90;99.90
4725;DHT22;2376;53.544;10.226;2023-07-13T06:36:01;19.00;99.90
4725;DHT22;2376;53.544;10.226;2023-07-13T06:38:28;19.00;99.90
4725;DHT22;2376;53.544;10.226;2023-07-13T06:40:55;19.00;99.90
4725;DHT22;2376;53.544;10.226;2023-07-13T06:43:22;19.00;99.90
4725;DHT22;2376;53.544;10.226;2023-07-13T06:45:50;19.10;99.90
4725;DHT22;2376;53.544;10.226;2023-07-13T06:48:19;19.20;99.90
4725;DHT22;2376;53.544;10.226;2023-07-13T06:50:47;19.20;99.90
4725;DHT22;2376;53.544;10.226;2023-07-13T06:53:15;19.30;99.90
4725;DHT22;2376;53.544;10.226;2023-07-13T06:55:44;19.40;99.90
4725;DHT22;2376;53.544;10.226;2023-07-13T06:58:11;19.40;99.90
4725;DHT22;2376;53.544;10.226;2023-07-13T07:00:38;19.40;99.90
4725;DHT22;2376;53.544;10.226;2023-07-13T07:03:06;19.50;99.90
4725;DHT22;2376;53.544;10.226;2023-07-13T07:05:34;19.50;99.90
4725;DHT22;2376;53.544;10.226;2023-07-13T07:08:01;19.50;99.90
4725;DHT22;2376;53.544;10.226;2023-07-13T07:10:30;19.60;99.90
4725;DHT22;2376;53.544;10.226;2023-07-13T07:12:57;19.60;99.90
4725;DHT22;2376;53.544;10.226;2023-07-13T07:15:24;19.70;99.90
4725;DHT22;2376;53.544;10.226;2023-07-13T07:17:50;19.70;99.90
4725;DHT22;2376;53.544;10.226;2023-07-13T07:20:17;19.80;99.90
4725;DHT22;2376;53.544;10.226;2023-07-13T07:22:45;19.80;99.90
4725;DHT22;2376;53.544;10.226;2023-07-13T07:25:12;19.80;99.90
4725;DHT22;2376;53.544;10.226;2023-07-13T07:27:39;19.80;99.90
4725;DHT22;2376;53.544;10.226;2023-07-13T07:30:06;19.80;99.90
4725;DHT22;2376;53.544;10.226;2023-07-13T07:32:33;19.80;99.90
4725;DHT22;2376;53.544;10.226;2023-07-13T07:35:00;19.90;99.90
4725;DHT22;2376;53.544;10.226;2023-07-13T07:37:26;19.90;99.90
4725;DHT22;2376;53.544;10.226;2023-07-13T07:39:54;19.90;99.90
4725;DHT22;2376;53.544;10.226;2023-07-13T07:42:21;19.80;99.90
4725;DHT22;2376;53.544;10.226;2023-07-13T07:44:48;19.80;99.90
4725;DHT22;2376;53.544;10.226;2023-07-13T07:47:15;19.80;99.90
4725;DHT22;2376;53.544;10.226;2023-07-13T07:49:42;19.80;99.90
4725;DHT22;2376;53.544;10.226;2023-07-13T07:52:08;19.80;99.90
4725;DHT22;2376;53.544;10.226;2023-07-13T07:54:35;19.90;99.90
4725;DHT22;2376;53.544;10.226;2023-07-13T07:57:03;19.90;99.90
4725;DHT22;2376;53.544;10.226;2023-07-13T07:59:30;19.90;99.90
4725;DHT22;2376;53.544;10.226;2023-07-13T08:01:57;19.90;99.90
4725;DHT22;2376;53.544;10.226;2023-07-13T08:04:24;20.00;99.90
4725;DHT22;2376;53.544;10.226;2023-07-13T08:06:50;20.10;99.90
4725;DHT22;2376;53.544;10.226;2023-07-13T08:09:17;20.10;99.90
4725;DHT22;2376;53.544;10.226;2023-07-13T08:11:44;20.20;99.90
4725;DHT22;2376;53.544;10.226;2023-07-13T08:14:12;20.20;99.90
4725;DHT22;2376;53.544;10.226;2023-07-13T08:16:38;20.20;99.90
4725;DHT22;2376;53.544;10.226;2023-07-13T08:19:05;20.20;99.90
4725;DHT22;2376;53.544;10.226;2023-07-13T08:21:32;20.30;99.90
4725;DHT22;2376;53.544;10.226;2023-07-13T08:23:59;20.40;99.90
4725;DHT22;2376;53.544;10.226;2023-07-13T08:26:25;20.40;99.90
4725;DHT22;2376;53.544;10.226;2023-07-13T08:28:52;20.40;99.90
4725;DHT22;2376;53.544;10.226;2023-07-13T08:31:20;20.40;99.90
4725;DHT22;2376;53.544;10.226;2023-07-13T08:33:46;20.50;99.90
4725;DHT22;2376;53.544;10.226;2023-07-13T08:36:13;20.60;99.90
4725;DHT22;2376;53.544;10.226;2023-07-13T08:38:40;20.80;99.90
4725;DHT22;2376;53.544;10.226;2023-07-13T08:41:12;20.90;99.90
4725;DHT22;2376;53.544;10.226;2023-07-13T08:43:39;21.00;99.90
4725;DHT22;2376;53.544;10.226;2023-07-13T08:46:11;21.10;99.90
4725;DHT22;2376;53.544;10.226;2023-07-13T08:48:44;21.10;99.90
4725;DHT22;2376;53.544;10.226;2023-07-13T08:51:25;21.30;99.90
4725;DHT22;2376;53.544;10.226;2023-07-13T08:53:57;21.40;99.90
4725;DHT22;2376;53.544;10.226;2023-07-13T08:56:27;21.50;99.90
4725;DHT22;2376;53.544;10.226;2023-07-13T08:58:56;21.60;99.90
4725;DHT22;2376;53.544;10.226;2023-07-13T09:01:28;21.60;99.90
4725;DHT22;2376;53.544;10.226;2023-07-13T09:04:03;21.60;99.90
4725;DHT22;2376;53.544;10.226;2023-07-13T09:09:25;21.80;99.90
4725;DHT22;2376;53.544;10.226;2023-07-13T09:12:04;21.90;99.90
4725;DHT22;2376;53.544;10.226;2023-07-13T09:14:46;22.00;99.90
4725;DHT22;2376;53.544;10.226;2023-07-13T09:17:17;22.10;99.90
4725;DHT22;2376;53.544;10.226;2023-07-13T09:19:49;22.20;99.90
4725;DHT22;2376;53.544;10.226;2023-07-13T09:22:21;22.40;99.90
4725;DHT22;2376;53.544;10.226;2023-07-13T09:24:54;22.50;99.90
4725;DHT22;2376;53.544;10.226;2023-07-13T09:27:27;22.50;99.90
4725;DHT22;2376;53.544;10.226;2023-07-13T09:30:01;22.60;99.90
4725;DHT22;2376;53.544;10.226;2023-07-13T09:32:31;22.50;99.90
4725;DHT22;2376;53.544;10.226;2023-07-13T09:35:00;22.50;99.90
4725;DHT22;2376;53.544;10.226;2023-07-13T09:37:31;22.40;99.90
4725;DHT22;2376;53.544;10.226;2023-07-13T09:40:01;22.30;99.90
4725;DHT22;2376;53.544;10.226;2023-07-13T09:42:31;22.20;99.90
4725;DHT22;2376;53.544;10.226;2023-07-13T09:45:00;22.10;99.90
4725;DHT22;2376;53.544;10.226;2023-07-13T09:47:30;22.00;99.90
4725;DHT22;2376;53.544;10.226;2023-07-13T09:50:00;22.00;99.90
4725;DHT22;2376;53.544;10.226;2023-07-13T09:52:29;22.10;99.90
4725;DHT22;2376;53.544;10.226;2023-07-13T09:55:23;22.10;99.90
4725;DHT22;2376;53.544;10.226;2023-07-13T09:57:50;22.20;99.90
4725;DHT22;2376;53.544;10.226;2023-07-13T10:00:22;22.20;99.90
4725;DHT22;2376;53.544;10.226;2023-07-13T10:02:59;22.40;99.90
4725;DHT22;2376;53.544;10.226;2023-07-13T10:05:27;22.50;99.90
4725;DHT22;2376;53.544;10.226;2023-07-13T10:07:56;22.60;99.90
4725;DHT22;2376;53.544;10.226;2023-07-13T10:10:23;22.70;99.90
4725;DHT22;2376;53.544;10.226;2023-07-13T10:12:50;22.70;99.90
4725;DHT22;2376;53.544;10.226;2023-07-13T10:15:19;22.70;99.90
4725;DHT22;2376;53.544;10.226;2023-07-13T10:17:47;22.80;99.90
4725;DHT22;2376;53.544;10.226;2023-07-13T10:20:14;23.00;99.90
4725;DHT22;2376;53.544;10.226;2023-07-13T10:22:47;23.00;99.90
4725;DHT22;2376;53.544;10.226;2023-07-13T10:25:20;23.10;99.90
4725;DHT22;2376;53.544;10.226;2023-07-13T10:27:49;23.10;99.90
4725;DHT22;2376;53.544;10.226;2023-07-13T10:30:20;23.10;99.90
4725;DHT22;2376;53.544;10.226;2023-07-13T10:32:48;23.10;99.90
4725;DHT22;2376;53.544;10.226;2023-07-13T10:35:18;23.10;99.90
4725;DHT22;2376;53.544;10.226;2023-07-13T10:37:51;23.10;99.90
4725;DHT22;2376;53.544;10.226;2023-07-13T10:40:21;23.10;99.90
4725;DHT22;2376;53.544;10.226;2023-07-13T10:42:51;23.00;99.90
4725;DHT22;2376;53.544;10.226;2023-07-13T10:45:22;22.90;99.90
4725;DHT22;2376;53.544;10.226;2023-07-13T10:47:52;23.00;99.90
4725;DHT22;2376;53.544;10.226;2023-07-13T10:50:23;23.00;99.90
4725;DHT22;2376;53.544;10.226;2023-07-13T10:52:54;23.10;99.90
4725;DHT22;2376;53.544;10.226;2023-07-13T10:55:37;23.20;99.90
4725;DHT22;2376;53.544;10.226;2023-07-13T10:58:13;23.20;99.90
4725;DHT22;2376;53.544;10.226;2023-07-13T11:00:47;23.20;99.90
4725;DHT22;2376;53.544;10.226;2023-07-13T11:03:17;23.40;99.90
4725;DHT22;2376;53.544;10.226;2023-07-13T11:05:48;23.50;99.90
4725;DHT22;2376;53.544;10.226;2023-07-13T11:08:20;23.50;99.90
4725;DHT22;2376;53.544;10.226;2023-07-13T11:10:53;23.60;99.90
4725;DHT22;2376;53.544;10.226;2023-07-13T11:13:36;23.60;99.90
4725;DHT22;2376;53.544;10.226;2023-07-13T11:16:12;23.70;99.90
4725;DHT22;2376;53.544;10.226;2023-07-13T11:18:39;23.70;99.90
4725;DHT22;2376;53.544;10.226;2023-07-13T11:21:15;23.80;98.80
4725;DHT22;2376;53.544;10.226;2023-07-13T11:23:45;23.70;98.00
4725;DHT22;2376;53.544;10.226;2023-07-13T11:26:37;23.70;98.70
4725;DHT22;2376;53.544;10.226;2023-07-13T11:29:08;23.80;99.90
4725;DHT22;2376;53.544;10.226;2023-07-13T11:31:35;23.80;99.90
4725;DHT22;2376;53.544;10.226;2023-07-13T11:34:02;24.00;99.90
4725;DHT22;2376;53.544;10.226;2023-07-13T11:36:32;24.10;99.90
4725;DHT22;2376;53.544;10.226;2023-07-13T11:39:10;24.20;98.40
4725;DHT22;2376;53.544;10.226;2023-07-13T11:41:44;24.30;93.70
4725;DHT22;2376;53.544;10.226;2023-07-13T11:44:13;24.20;90.70
4725;DHT22;2376;53.544;10.226;2023-07-13T11:46:45;24.20;86.60
4725;DHT22;2376;53.544;10.226;2023-07-13T11:49:15;24.10;84.70
4725;DHT22;2376;53.544;10.226;2023-07-13T11:51:42;24.10;85.00
4725;DHT22;2376;53.544;10.226;2023-07-13T11:54:21;24.10;86.00
4725;DHT22;2376;53.544;10.226;2023-07-13T11:56:49;24.00;86.90
4725;DHT22;2376;53.544;10.226;2023-07-13T11:59:16;24.00;88.60
4725;DHT22;2376;53.544;10.226;2023-07-13T12:01:48;23.90;90.80
4725;DHT22;2376;53.544;10.226;2023-07-13T12:04:21;24.10;90.20
4725;DHT22;2376;53.544;10.226;2023-07-13T12:06:55;24.30;90.00
4725;DHT22;2376;53.544;10.226;2023-07-13T12:09:27;24.40;91.60
4725;DHT22;2376;53.544;10.226;2023-07-13T12:11:56;24.50;88.90
4725;DHT22;2376;53.544;10.226;2023-07-13T12:14:22;24.60;85.80
4725;DHT22;2376;53.544;10.226;2023-07-13T12:16:52;24.70;84.80
4725;DHT22;2376;53.544;10.226;2023-07-13T12:19:21;24.70;84.00
4725;DHT22;2376;53.544;10.226;2023-07-13T12:21:49;24.70;83.60
4725;DHT22;2376;53.544;10.226;2023-07-13T12:24:17;24.80;84.30
4725;DHT22;2376;53.544;10.226;2023-07-13T12:26:50;24.80;84.10
4725;DHT22;2376;53.544;10.226;2023-07-13T12:29:18;24.80;81.80
4725;DHT22;2376;53.544;10.226;2023-07-13T12:31:46;24.70;78.30
4725;DHT22;2376;53.544;10.226;2023-07-13T12:34:14;24.50;77.40
4725;DHT22;2376;53.544;10.226;2023-07-13T12:36:46;24.40;77.40
4725;DHT22;2376;53.544;10.226;2023-07-13T12:39:16;23.80;99.90
4725;DHT22;2376;53.544;10.226;2023-07-13T12:41:45;22.00;99.90
4725;DHT22;2376;53.544;10.226;2023-07-13T12:44:13;20.80;99.90
4725;DHT22;2376;53.544;10.226;2023-07-13T12:46:52;20.00;99.90
4725;DHT22;2376;53.544;10.226;2023-07-13T12:49:23;19.30;99.90
4725;DHT22;2376;53.544;10.226;2023-07-13T12:51:55;18.70;99.90
4725;DHT22;2376;53.544;10.226;2023-07-13T12:54:22;18.30;99.90
4725;DHT22;2376;53.544;10.226;2023-07-13T12:56:51;18.30;99.90
4725;DHT22;2376;53.544;10.226;2023-07-13T12:59:20;18.40;99.90
4725;DHT22;2376;53.544;10.226;2023-07-13T13:01:48;18.30;99.90
4725;DHT22;2376;53.544;10.226;2023-07-13T13:04:16;18.40;99.90
4725;DHT22;2376;53.544;10.226;2023-07-13T13:06:47;18.70;99.90
4725;DHT22;2376;53.544;10.226;2023-07-13T13:09:15;19.10;99.90
4725;DHT22;2376;53.544;10.226;2023-07-13T13:11:46;19.60;99.90
4725;DHT22;2376;53.544;10.226;2023-07-13T13:14:14;19.70;99.90
4725;DHT22;2376;53.544;10.226;2023-07-13T13:16:47;20.00;99.90
4725;DHT22;2376;53.544;10.226;2023-07-13T13:19:18;20.30;99.90
4725;DHT22;2376;53.544;10.226;2023-07-13T13:21:47;20.50;99.90
4725;DHT22;2376;53.544;10.226;2023-07-13T13:24:17;20.60;99.90
4725;DHT22;2376;53.544;10.226;2023-07-13T13:26:46;20.70;99.90
4725;DHT22;2376;53.544;10.226;2023-07-13T13:29:17;20.80;99.90
4725;DHT22;2376;53.544;10.226;2023-07-13T13:31:44;20.90;99.90
4725;DHT22;2376;53.544;10.226;2023-07-13T13:34:12;20.90;99.90
4725;DHT22;2376;53.544;10.226;2023-07-13T13:36:39;21.00;99.90
4725;DHT22;2376;53.544;10.226;2023-07-13T13:39:18;21.10;99.90
4725;DHT22;2376;53.544;10.226;2023-07-13T13:41:46;21.20;99.90
4725;DHT22;2376;53.544;10.226;2023-07-13T13:44:15;21.30;99.90
4725;DHT22;2376;53.544;10.226;2023-07-13T13:46:43;21.50;99.90
4725;DHT22;2376;53.544;10.226;2023-07-13T13:49:13;21.60;99.90
4725;DHT22;2376;53.544;10.226;2023-07-13T13:51:41;21.70;99.90
4725;DHT22;2376;53.544;10.226;2023-07-13T13:54:11;21.80;99.90
4725;DHT22;2376;53.544;10.226;2023-07-13T13:56:38;22.00;99.90
4725;DHT22;2376;53.544;10.226;2023-07-13T13:59:05;22.10;99.90
4725;DHT22;2376;53.544;10.226;2023-07-13T14:01:35;22.20;99.90
4725;DHT22;2376;53.544;10.226;2023-07-13T14:04:03;22.20;99.90
4725;DHT22;2376;53.544;10.226;2023-07-13T14:06:31;22.20;99.90
4725;DHT22;2376;53.544;10.226;2023-07-13T14:08:58;22.20;99.90
4725;DHT22;2376;53.544;10.226;2023-07-13T14:11:25;22.20;99.90
4725;DHT22;2376;53.544;10.226;2023-07-13T14:13:56;22.10;99.90
4725;DHT22;2376;53.544;10.226;2023-07-13T14:16:27;22.10;99.90
4725;DHT22;2376;53.544;10.226;2023-07-13T14:18:56;21.90;99.90
4725;DHT22;2376;53.544;10.226;2023-07-13T14:21:26;21.90;99.90
4725;DHT22;2376;53.544;10.226;2023-07-13T14:23:53;21.90;99.90
4725;DHT22;2376;53.544;10.226;2023-07-13T14:26:22;21.90;99.90
4725;DHT22;2376;53.544;10.226;2023-07-13T14:28:52;21.90;99.90
4725;DHT22;2376;53.544;10.226;2023-07-13T14:31:20;22.00;99.90
4725;DHT22;2376;53.544;10.226;2023-07-13T14:33:47;22.00;99.90
4725;DHT22;2376;53.544;10.226;2023-07-13T14:36:26;21.90;99.90
4725;DHT22;2376;53.544;10.226;2023-07-13T14:38:53;21.80;99.90
4725;DHT22;2376;53.544;10.226;2023-07-13T14:41:20;21.90;99.90
4725;DHT22;2376;53.544;10.226;2023-07-13T14:43:47;21.90;99.90
4725;DHT22;2376;53.544;10.226;2023-07-13T14:46:24;21.80;99.90
4725;DHT22;2376;53.544;10.226;2023-07-13T14:49:02;21.90;99.90
4725;DHT22;2376;53.544;10.226;2023-07-13T14:51:31;21.90;99.90
4725;DHT22;2376;53.544;10.226;2023-07-13T14:54:02;21.90;99.90
4725;DHT22;2376;53.544;10.226;2023-07-13T14:56:29;22.00;99.90
4725;DHT22;2376;53.544;10.226;2023-07-13T14:58:56;22.00;99.90
4725;DHT22;2376;53.544;10.226;2023-07-13T15:01:23;22.00;99.90
4725;DHT22;2376;53.544;10.226;2023-07-13T15:03:51;22.00;99.90
4725;DHT22;2376;53.544;10.226;2023-07-13T15:06:19;22.20;99.90
4725;DHT22;2376;53.544;10.226;2023-07-13T15:08:47;22.30;99.90
4725;DHT22;2376;53.544;10.226;2023-07-13T15:11:15;22.60;99.90
4725;DHT22;2376;53.544;10.226;2023-07-13T15:13:42;22.80;99.90
4725;DHT22;2376;53.544;10.226;2023-07-13T15:16:15;23.10;99.90
4725;DHT22;2376;53.544;10.226;2023-07-13T15:18:43;23.40;99.90
4725;DHT22;2376;53.544;10.226;2023-07-13T15:21:11;23.50;99.90
4725;DHT22;2376;53.544;10.226;2023-07-13T15:23:41;23.40;99.90
4725;DHT22;2376;53.544;10.226;2023-07-13T15:26:11;23.50;99.90
4725;DHT22;2376;53.544;10.226;2023-07-13T15:28:40;23.40;99.90
4725;DHT22;2376;53.544;10.226;2023-07-13T15:31:20;23.40;99.90
4725;DHT22;2376;53.544;10.226;2023-07-13T15:33:48;23.50;99.90
4725;DHT22;2376;53.544;10.226;2023-07-13T15:36:16;23.80;99.90
4725;DHT22;2376;53.544;10.226;2023-07-13T15:38:43;24.10;99.90
4725;DHT22;2376;53.544;10.226;2023-07-13T15:41:20;24.40;99.90
4725;DHT22;2376;53.544;10.226;2023-07-13T15:43:48;24.80;99.90
4725;DHT22;2376;53.544;10.226;2023-07-13T15:46:14;25.00;99.90
4725;DHT22;2376;53.544;10.226;2023-07-13T15:48:41;25.00;99.90
4725;DHT22;2376;53.544;10.226;2023-07-13T15:51:15;25.00;99.90
4725;DHT22;2376;53.544;10.226;2023-07-13T15:53:43;24.80;99.90
4725;DHT22;2376;53.544;10.226;2023-07-13T15:56:19;24.70;99.90
4725;DHT22;2376;53.544;10.226;2023-07-13T15:58:47;24.60;99.90